Gimlet, Kentucky
Current Conditions -  °F | °C
As of 2:30 PM on Saturday 25 Oct 2014 (Local Time) from KSYM Reporting Station
Overcast Overcast  
Wind Chill: 64°   Ceiling: 2000
Heat Index: 64°   Visibility: 10mi
Dew Point: 52°   Wind: 9mph
Humidity: 64%   Direction: 220°SW
Pressure: 29.99"   Gusts: NA
Location:  38.3543°N, 83.1837°W
Report Text: KSYM 251830Z AUTO 22008KT 10SM OVC020 18/11 A2999 RMK AO2
Loading
Personal Weather Stations






























Interactive Weather Map
Tropical Storm Tracking
New forecast layout! Learn more

10-Day Weather Forecast

Advertisements
Track Severe Weather on mobile